sensor_id;sensor_type;location;lat;lon;timestamp;P1;durP1;ratioP1;P2;durP2;ratioP2
75639;SDS011;64233;51.486;6.332;2022-11-20T00:00:50;12.13;;;6.45;;
75639;SDS011;64233;51.486;6.332;2022-11-20T00:03:15;10.63;;;4.78;;
75639;SDS011;64233;51.486;6.332;2022-11-20T00:05:40;10.48;;;6.97;;
75639;SDS011;64233;51.486;6.332;2022-11-20T00:08:06;7.30;;;5.50;;
75639;SDS011;64233;51.486;6.332;2022-11-20T00:10:31;11.55;;;6.30;;
75639;SDS011;64233;51.486;6.332;2022-11-20T00:12:59;9.13;;;5.60;;
75639;SDS011;64233;51.486;6.332;2022-11-20T00:15:25;10.85;;;5.32;;
75639;SDS011;64233;51.486;6.332;2022-11-20T00:17:50;9.00;;;6.13;;
75639;SDS011;64233;51.486;6.332;2022-11-20T00:20:15;11.55;;;6.20;;
75639;SDS011;64233;51.486;6.332;2022-11-20T00:22:40;8.82;;;5.45;;
75639;SDS011;64233;51.486;6.332;2022-11-20T00:25:06;12.13;;;6.65;;
75639;SDS011;64233;51.486;6.332;2022-11-20T00:27:31;9.45;;;6.20;;
75639;SDS011;64233;51.486;6.332;2022-11-20T00:29:57;10.43;;;6.05;;
75639;SDS011;64233;51.486;6.332;2022-11-20T00:32:22;8.20;;;5.07;;
75639;SDS011;64233;51.486;6.332;2022-11-20T00:34:47;19.88;;;7.32;;
75639;SDS011;64233;51.486;6.332;2022-11-20T00:37:13;8.43;;;5.60;;
75639;SDS011;64233;51.486;6.332;2022-11-20T00:39:38;7.80;;;4.95;;
75639;SDS011;64233;51.486;6.332;2022-11-20T00:42:03;11.88;;;5.75;;
75639;SDS011;64233;51.486;6.332;2022-11-20T00:44:28;8.82;;;5.40;;
75639;SDS011;64233;51.486;6.332;2022-11-20T00:46:54;10.98;;;6.43;;
75639;SDS011;64233;51.486;6.332;2022-11-20T00:49:19;8.23;;;5.63;;
75639;SDS011;64233;51.486;6.332;2022-11-20T00:51:44;9.52;;;5.70;;
75639;SDS011;64233;51.486;6.332;2022-11-20T00:54:09;9.45;;;6.18;;
75639;SDS011;64233;51.486;6.332;2022-11-20T00:56:35;11.75;;;5.43;;
75639;SDS011;64233;51.486;6.332;2022-11-20T00:59:00;8.70;;;5.20;;
75639;SDS011;64233;51.486;6.332;2022-11-20T01:01:26;12.93;;;5.68;;
75639;SDS011;64233;51.486;6.332;2022-11-20T01:03:52;7.07;;;4.78;;
75639;SDS011;64233;51.486;6.332;2022-11-20T01:06:20;14.25;;;7.18;;
75639;SDS011;64233;51.486;6.332;2022-11-20T01:08:47;11.75;;;6.53;;
75639;SDS011;64233;51.486;6.332;2022-11-20T01:11:15;13.95;;;6.93;;
75639;SDS011;64233;51.486;6.332;2022-11-20T01:13:45;13.07;;;6.63;;
75639;SDS011;64233;51.486;6.332;2022-11-20T01:16:15;13.18;;;7.40;;
75639;SDS011;64233;51.486;6.332;2022-11-20T01:18:43;8.68;;;5.00;;
75639;SDS011;64233;51.486;6.332;2022-11-20T01:21:11;11.93;;;7.15;;
75639;SDS011;64233;51.486;6.332;2022-11-20T01:23:39;9.02;;;4.95;;
75639;SDS011;64233;51.486;6.332;2022-11-20T01:26:07;11.25;;;6.35;;
75639;SDS011;64233;51.486;6.332;2022-11-20T01:28:38;10.32;;;6.07;;
75639;SDS011;64233;51.486;6.332;2022-11-20T01:31:10;6.22;;;4.47;;
75639;SDS011;64233;51.486;6.332;2022-11-20T01:33:41;10.05;;;6.03;;
75639;SDS011;64233;51.486;6.332;2022-11-20T01:36:07;9.27;;;5.90;;
75639;SDS011;64233;51.486;6.332;2022-11-20T01:38:33;14.77;;;7.90;;
75639;SDS011;64233;51.486;6.332;2022-11-20T01:40:59;15.00;;;8.10;;
75639;SDS011;64233;51.486;6.332;2022-11-20T01:43:25;10.02;;;5.60;;
75639;SDS011;64233;51.486;6.332;2022-11-20T01:48:26;10.77;;;6.22;;
75639;SDS011;64233;51.486;6.332;2022-11-20T01:50:56;10.18;;;6.38;;
75639;SDS011;64233;51.486;6.332;2022-11-20T01:53:24;13.73;;;6.45;;
75639;SDS011;64233;51.486;6.332;2022-11-20T01:55:55;8.30;;;4.88;;
75639;SDS011;64233;51.486;6.332;2022-11-20T01:58:25;8.85;;;5.68;;
75639;SDS011;64233;51.486;6.332;2022-11-20T02:01:01;15.43;;;6.45;;
75639;SDS011;64233;51.486;6.332;2022-11-20T02:03:35;12.02;;;7.25;;
75639;SDS011;64233;51.486;6.332;2022-11-20T02:06:22;11.80;;;5.88;;
75639;SDS011;64233;51.486;6.332;2022-11-20T02:08:50;9.32;;;5.85;;
75639;SDS011;64233;51.486;6.332;2022-11-20T02:11:17;14.73;;;7.78;;
75639;SDS011;64233;51.486;6.332;2022-11-20T02:13:42;8.55;;;4.72;;
75639;SDS011;64233;51.486;6.332;2022-11-20T02:16:08;7.57;;;5.70;;
75639;SDS011;64233;51.486;6.332;2022-11-20T02:18:36;7.60;;;4.55;;
75639;SDS011;64233;51.486;6.332;2022-11-20T02:21:23;7.78;;;5.45;;
75639;SDS011;64233;51.486;6.332;2022-11-20T02:24:06;11.60;;;6.72;;
75639;SDS011;64233;51.486;6.332;2022-11-20T02:26:40;15.30;;;8.27;;
75639;SDS011;64233;51.486;6.332;2022-11-20T02:32:04;11.60;;;5.95;;
75639;SDS011;64233;51.486;6.332;2022-11-20T02:34:30;12.57;;;7.20;;
75639;SDS011;64233;51.486;6.332;2022-11-20T02:36:56;9.57;;;5.20;;
75639;SDS011;64233;51.486;6.332;2022-11-20T02:39:22;9.38;;;5.47;;
75639;SDS011;64233;51.486;6.332;2022-11-20T02:41:50;8.05;;;5.03;;
75639;SDS011;64233;51.486;6.332;2022-11-20T02:44:18;9.02;;;6.10;;
75639;SDS011;64233;51.486;6.332;2022-11-20T02:46:44;10.30;;;6.78;;
75639;SDS011;64233;51.486;6.332;2022-11-20T02:49:10;12.13;;;6.75;;
75639;SDS011;64233;51.486;6.332;2022-11-20T02:51:35;10.68;;;6.28;;
75639;SDS011;64233;51.486;6.332;2022-11-20T02:54:00;11.90;;;6.85;;
75639;SDS011;64233;51.486;6.332;2022-11-20T02:56:26;17.30;;;8.45;;
75639;SDS011;64233;51.486;6.332;2022-11-20T02:58:51;17.38;;;8.77;;
75639;SDS011;64233;51.486;6.332;2022-11-20T03:01:17;13.40;;;7.40;;
75639;SDS011;64233;51.486;6.332;2022-11-20T03:03:42;13.15;;;7.57;;
75639;SDS011;64233;51.486;6.332;2022-11-20T03:06:08;16.10;;;7.68;;
75639;SDS011;64233;51.486;6.332;2022-11-20T03:08:33;13.45;;;6.78;;
75639;SDS011;64233;51.486;6.332;2022-11-20T03:11:03;14.88;;;8.10;;
75639;SDS011;64233;51.486;6.332;2022-11-20T03:13:30;18.45;;;8.25;;
75639;SDS011;64233;51.486;6.332;2022-11-20T03:15:55;15.20;;;7.75;;
75639;SDS011;64233;51.486;6.332;2022-11-20T03:18:20;10.02;;;6.97;;
75639;SDS011;64233;51.486;6.332;2022-11-20T03:20:46;14.43;;;6.50;;
75639;SDS011;64233;51.486;6.332;2022-11-20T03:23:11;13.98;;;9.15;;
75639;SDS011;64233;51.486;6.332;2022-11-20T03:25:36;11.63;;;5.75;;
75639;SDS011;64233;51.486;6.332;2022-11-20T03:28:02;16.23;;;7.75;;
75639;SDS011;64233;51.486;6.332;2022-11-20T03:30:27;13.00;;;7.43;;
75639;SDS011;64233;51.486;6.332;2022-11-20T03:32:53;15.88;;;7.70;;
75639;SDS011;64233;51.486;6.332;2022-11-20T03:35:19;13.55;;;8.45;;
75639;SDS011;64233;51.486;6.332;2022-11-20T03:37:44;16.17;;;7.95;;
75639;SDS011;64233;51.486;6.332;2022-11-20T03:40:10;16.75;;;7.25;;
75639;SDS011;64233;51.486;6.332;2022-11-20T03:42:36;11.48;;;8.27;;
75639;SDS011;64233;51.486;6.332;2022-11-20T03:45:10;14.13;;;7.95;;
75639;SDS011;64233;51.486;6.332;2022-11-20T03:47:35;8.80;;;5.95;;
75639;SDS011;64233;51.486;6.332;2022-11-20T03:50:01;13.48;;;8.05;;
75639;SDS011;64233;51.486;6.332;2022-11-20T03:52:27;13.32;;;7.55;;
75639;SDS011;64233;51.486;6.332;2022-11-20T03:54:52;15.18;;;7.68;;
75639;SDS011;64233;51.486;6.332;2022-11-20T03:57:17;13.82;;;6.75;;
75639;SDS011;64233;51.486;6.332;2022-11-20T03:59:42;18.27;;;8.05;;
75639;SDS011;64233;51.486;6.332;2022-11-20T04:02:08;14.48;;;7.72;;
75639;SDS011;64233;51.486;6.332;2022-11-20T04:04:33;10.15;;;6.78;;
75639;SDS011;64233;51.486;6.332;2022-11-20T04:06:58;10.82;;;7.25;;
75639;SDS011;64233;51.486;6.332;2022-11-20T04:09:24;12.38;;;7.20;;
75639;SDS011;64233;51.486;6.332;2022-11-20T04:11:49;16.83;;;7.45;;
75639;SDS011;64233;51.486;6.332;2022-11-20T04:14:15;15.43;;;8.13;;
75639;SDS011;64233;51.486;6.332;2022-11-20T04:16:41;16.20;;;8.50;;
75639;SDS011;64233;51.486;6.332;2022-11-20T04:19:09;12.98;;;8.57;;
75639;SDS011;64233;51.486;6.332;2022-11-20T04:21:36;12.65;;;7.47;;
75639;SDS011;64233;51.486;6.332;2022-11-20T04:24:02;13.07;;;6.80;;
75639;SDS011;64233;51.486;6.332;2022-11-20T04:26:27;11.70;;;7.47;;
75639;SDS011;64233;51.486;6.332;2022-11-20T04:28:54;17.45;;;7.28;;
75639;SDS011;64233;51.486;6.332;2022-11-20T04:31:21;14.88;;;7.85;;
75639;SDS011;64233;51.486;6.332;2022-11-20T04:33:48;19.10;;;7.70;;
75639;SDS011;64233;51.486;6.332;2022-11-20T04:36:14;10.98;;;6.28;;
75639;SDS011;64233;51.486;6.332;2022-11-20T04:38:42;7.80;;;5.25;;
75639;SDS011;64233;51.486;6.332;2022-11-20T04:41:08;12.35;;;7.57;;
75639;SDS011;64233;51.486;6.332;2022-11-20T04:43:39;8.30;;;5.13;;
75639;SDS011;64233;51.486;6.332;2022-11-20T04:46:04;11.40;;;5.72;;
75639;SDS011;64233;51.486;6.332;2022-11-20T04:48:30;7.15;;;4.93;;
75639;SDS011;64233;51.486;6.332;2022-11-20T04:50:55;13.77;;;7.50;;
75639;SDS011;64233;51.486;6.332;2022-11-20T04:53:21;8.48;;;5.97;;
75639;SDS011;64233;51.486;6.332;2022-11-20T04:55:46;15.57;;;7.43;;
75639;SDS011;64233;51.486;6.332;2022-11-20T04:58:12;12.65;;;7.47;;
75639;SDS011;64233;51.486;6.332;2022-11-20T05:00:38;11.38;;;5.97;;
75639;SDS011;64233;51.486;6.332;2022-11-20T05:03:04;8.45;;;6.00;;
75639;SDS011;64233;51.486;6.332;2022-11-20T05:05:29;14.93;;;8.90;;
75639;SDS011;64233;51.486;6.332;2022-11-20T05:07:58;13.07;;;7.50;;
75639;SDS011;64233;51.486;6.332;2022-11-20T05:10:24;10.98;;;7.53;;
75639;SDS011;64233;51.486;6.332;2022-11-20T05:12:50;10.00;;;6.55;;
75639;SDS011;64233;51.486;6.332;2022-11-20T05:15:15;10.90;;;6.38;;
75639;SDS011;64233;51.486;6.332;2022-11-20T05:17:40;12.55;;;8.00;;
75639;SDS011;64233;51.486;6.332;2022-11-20T05:20:06;16.00;;;8.85;;
75639;SDS011;64233;51.486;6.332;2022-11-20T05:22:31;13.77;;;8.05;;
75639;SDS011;64233;51.486;6.332;2022-11-20T05:24:57;14.15;;;8.18;;
75639;SDS011;64233;51.486;6.332;2022-11-20T05:27:22;17.85;;;8.45;;
75639;SDS011;64233;51.486;6.332;2022-11-20T05:29:47;14.02;;;8.48;;
75639;SDS011;64233;51.486;6.332;2022-11-20T05:32:13;16.65;;;9.93;;
75639;SDS011;64233;51.486;6.332;2022-11-20T05:34:38;16.65;;;8.93;;
75639;SDS011;64233;51.486;6.332;2022-11-20T05:37:03;19.92;;;9.48;;
75639;SDS011;64233;51.486;6.332;2022-11-20T05:39:28;12.95;;;8.25;;
75639;SDS011;64233;51.486;6.332;2022-11-20T05:41:54;10.93;;;7.00;;
75639;SDS011;64233;51.486;6.332;2022-11-20T05:44:37;13.07;;;7.97;;
75639;SDS011;64233;51.486;6.332;2022-11-20T05:47:03;11.85;;;7.90;;
75639;SDS011;64233;51.486;6.332;2022-11-20T05:49:29;10.93;;;7.20;;
75639;SDS011;64233;51.486;6.332;2022-11-20T05:51:54;17.15;;;9.07;;
75639;SDS011;64233;51.486;6.332;2022-11-20T05:54:19;17.98;;;10.38;;
75639;SDS011;64233;51.486;6.332;2022-11-20T05:56:44;16.48;;;8.77;;
75639;SDS011;64233;51.486;6.332;2022-11-20T05:59:10;14.88;;;7.40;;
75639;SDS011;64233;51.486;6.332;2022-11-20T06:01:35;16.27;;;8.60;;
75639;SDS011;64233;51.486;6.332;2022-11-20T06:04:01;15.38;;;9.20;;
75639;SDS011;64233;51.486;6.332;2022-11-20T06:06:27;18.98;;;8.68;;
75639;SDS011;64233;51.486;6.332;2022-11-20T06:08:52;17.40;;;9.30;;
75639;SDS011;64233;51.486;6.332;2022-11-20T06:11:18;15.00;;;9.43;;
75639;SDS011;64233;51.486;6.332;2022-11-20T06:13:43;20.27;;;10.95;;
75639;SDS011;64233;51.486;6.332;2022-11-20T06:16:11;17.83;;;9.32;;
75639;SDS011;64233;51.486;6.332;2022-11-20T06:18:38;20.20;;;9.88;;
75639;SDS011;64233;51.486;6.332;2022-11-20T06:21:13;15.73;;;8.98;;
75639;SDS011;64233;51.486;6.332;2022-11-20T06:23:43;17.02;;;9.45;;
75639;SDS011;64233;51.486;6.332;2022-11-20T06:26:09;14.82;;;9.60;;
75639;SDS011;64233;51.486;6.332;2022-11-20T06:28:36;15.25;;;9.15;;
75639;SDS011;64233;51.486;6.332;2022-11-20T06:31:02;24.88;;;8.40;;
75639;SDS011;64233;51.486;6.332;2022-11-20T06:33:28;15.90;;;9.80;;
75639;SDS011;64233;51.486;6.332;2022-11-20T06:35:55;12.93;;;9.80;;
75639;SDS011;64233;51.486;6.332;2022-11-20T06:38:22;21.23;;;10.63;;
75639;SDS011;64233;51.486;6.332;2022-11-20T06:40:48;17.90;;;10.18;;
75639;SDS011;64233;51.486;6.332;2022-11-20T06:43:13;20.30;;;9.82;;
75639;SDS011;64233;51.486;6.332;2022-11-20T06:45:38;14.55;;;8.70;;
75639;SDS011;64233;51.486;6.332;2022-11-20T06:48:04;18.15;;;8.82;;
75639;SDS011;64233;51.486;6.332;2022-11-20T06:50:29;14.68;;;8.40;;
75639;SDS011;64233;51.486;6.332;2022-11-20T06:52:55;14.60;;;8.48;;
75639;SDS011;64233;51.486;6.332;2022-11-20T06:55:20;15.40;;;9.15;;
75639;SDS011;64233;51.486;6.332;2022-11-20T06:57:45;19.58;;;11.07;;
75639;SDS011;64233;51.486;6.332;2022-11-20T07:00:11;28.02;;;14.60;;
75639;SDS011;64233;51.486;6.332;2022-11-20T07:02:36;53.72;;;18.08;;
75639;SDS011;64233;51.486;6.332;2022-11-20T07:05:02;42.17;;;17.67;;
75639;SDS011;64233;51.486;6.332;2022-11-20T07:07:27;37.97;;;15.85;;
75639;SDS011;64233;51.486;6.332;2022-11-20T07:09:53;28.02;;;12.95;;
75639;SDS011;64233;51.486;6.332;2022-11-20T07:12:18;25.85;;;11.77;;
75639;SDS011;64233;51.486;6.332;2022-11-20T07:14:43;26.45;;;12.05;;
75639;SDS011;64233;51.486;6.332;2022-11-20T07:17:08;19.42;;;11.10;;
75639;SDS011;64233;51.486;6.332;2022-11-20T07:19:34;28.48;;;13.27;;
75639;SDS011;64233;51.486;6.332;2022-11-20T07:21:59;17.02;;;9.73;;
75639;SDS011;64233;51.486;6.332;2022-11-20T07:24:24;19.05;;;9.02;;
75639;SDS011;64233;51.486;6.332;2022-11-20T07:26:49;22.45;;;10.23;;
75639;SDS011;64233;51.486;6.332;2022-11-20T07:29:15;22.38;;;11.15;;
75639;SDS011;64233;51.486;6.332;2022-11-20T07:31:41;18.05;;;10.25;;
75639;SDS011;64233;51.486;6.332;2022-11-20T07:34:07;18.23;;;9.50;;
75639;SDS011;64233;51.486;6.332;2022-11-20T07:36:32;20.63;;;9.93;;
75639;SDS011;64233;51.486;6.332;2022-11-20T07:38:57;18.40;;;10.05;;
75639;SDS011;64233;51.486;6.332;2022-11-20T07:41:23;24.65;;;12.07;;
75639;SDS011;64233;51.486;6.332;2022-11-20T07:43:48;25.63;;;11.00;;
75639;SDS011;64233;51.486;6.332;2022-11-20T07:46:13;16.30;;;9.52;;
75639;SDS011;64233;51.486;6.332;2022-11-20T07:48:39;21.73;;;9.82;;
75639;SDS011;64233;51.486;6.332;2022-11-20T07:51:04;12.98;;;9.00;;
75639;SDS011;64233;51.486;6.332;2022-11-20T07:53:29;16.92;;;9.82;;
75639;SDS011;64233;51.486;6.332;2022-11-20T07:55:55;16.40;;;10.05;;
75639;SDS011;64233;51.486;6.332;2022-11-20T07:58:23;18.35;;;9.95;;
75639;SDS011;64233;51.486;6.332;2022-11-20T08:00:49;20.45;;;11.05;;
75639;SDS011;64233;51.486;6.332;2022-11-20T08:03:14;16.05;;;8.82;;
75639;SDS011;64233;51.486;6.332;2022-11-20T08:05:39;18.63;;;8.68;;
75639;SDS011;64233;51.486;6.332;2022-11-20T08:08:05;15.52;;;8.48;;
75639;SDS011;64233;51.486;6.332;2022-11-20T08:10:31;17.10;;;9.88;;
75639;SDS011;64233;51.486;6.332;2022-11-20T08:12:56;16.00;;;10.02;;
75639;SDS011;64233;51.486;6.332;2022-11-20T08:15:41;23.77;;;10.27;;
75639;SDS011;64233;51.486;6.332;2022-11-20T08:18:07;14.65;;;9.98;;
75639;SDS011;64233;51.486;6.332;2022-11-20T08:20:35;15.75;;;9.98;;
75639;SDS011;64233;51.486;6.332;2022-11-20T08:23:02;18.95;;;9.55;;
75639;SDS011;64233;51.486;6.332;2022-11-20T08:25:30;12.88;;;8.52;;
75639;SDS011;64233;51.486;6.332;2022-11-20T08:27:59;18.50;;;9.90;;
75639;SDS011;64233;51.486;6.332;2022-11-20T08:30:25;14.13;;;9.30;;
75639;SDS011;64233;51.486;6.332;2022-11-20T08:32:51;10.70;;;7.60;;
75639;SDS011;64233;51.486;6.332;2022-11-20T08:35:17;15.25;;;8.13;;
75639;SDS011;64233;51.486;6.332;2022-11-20T08:37:45;17.50;;;9.77;;
75639;SDS011;64233;51.486;6.332;2022-11-20T08:40:11;19.80;;;11.43;;
75639;SDS011;64233;51.486;6.332;2022-11-20T08:42:36;12.60;;;7.88;;
75639;SDS011;64233;51.486;6.332;2022-11-20T08:45:02;14.90;;;8.85;;
75639;SDS011;64233;51.486;6.332;2022-11-20T08:47:27;17.25;;;8.60;;
75639;SDS011;64233;51.486;6.332;2022-11-20T08:49:53;20.88;;;10.60;;
75639;SDS011;64233;51.486;6.332;2022-11-20T08:52:18;15.93;;;8.25;;
75639;SDS011;64233;51.486;6.332;2022-11-20T08:54:43;22.30;;;11.48;;
75639;SDS011;64233;51.486;6.332;2022-11-20T08:57:09;18.02;;;9.82;;
75639;SDS011;64233;51.486;6.332;2022-11-20T08:59:34;16.55;;;10.52;;
75639;SDS011;64233;51.486;6.332;2022-11-20T09:01:59;19.83;;;9.63;;
75639;SDS011;64233;51.486;6.332;2022-11-20T09:04:24;14.65;;;10.13;;
75639;SDS011;64233;51.486;6.332;2022-11-20T09:06:50;24.38;;;10.63;;
75639;SDS011;64233;51.486;6.332;2022-11-20T09:09:16;18.73;;;10.20;;
75639;SDS011;64233;51.486;6.332;2022-11-20T09:11:42;23.50;;;11.93;;
75639;SDS011;64233;51.486;6.332;2022-11-20T09:14:08;20.17;;;10.00;;
75639;SDS011;64233;51.486;6.332;2022-11-20T09:16:33;20.15;;;10.93;;
75639;SDS011;64233;51.486;6.332;2022-11-20T09:18:58;19.58;;;10.20;;
75639;SDS011;64233;51.486;6.332;2022-11-20T09:21:24;18.00;;;8.93;;
75639;SDS011;64233;51.486;6.332;2022-11-20T09:23:49;19.20;;;9.32;;
75639;SDS011;64233;51.486;6.332;2022-11-20T09:26:14;18.08;;;9.70;;
75639;SDS011;64233;51.486;6.332;2022-11-20T09:28:40;20.73;;;10.65;;
75639;SDS011;64233;51.486;6.332;2022-11-20T09:31:06;14.40;;;8.57;;
75639;SDS011;64233;51.486;6.332;2022-11-20T09:33:33;17.08;;;8.57;;
75639;SDS011;64233;51.486;6.332;2022-11-20T09:35:58;12.60;;;7.53;;
75639;SDS011;64233;51.486;6.332;2022-11-20T09:38:23;11.10;;;6.43;;
75639;SDS011;64233;51.486;6.332;2022-11-20T09:40:51;13.00;;;7.63;;
75639;SDS011;64233;51.486;6.332;2022-11-20T09:43:28;7.95;;;5.90;;
75639;SDS011;64233;51.486;6.332;2022-11-20T09:46:20;16.20;;;7.55;;
75639;SDS011;64233;51.486;6.332;2022-11-20T09:51:53;10.93;;;6.65;;
75639;SDS011;64233;51.486;6.332;2022-11-20T09:54:30;17.43;;;9.03;;
75639;SDS011;64233;51.486;6.332;2022-11-20T09:57:18;17.70;;;9.00;;
75639;SDS011;64233;51.486;6.332;2022-11-20T09:59:48;15.93;;;9.52;;
75639;SDS011;64233;51.486;6.332;2022-11-20T10:02:19;20.70;;;10.80;;
75639;SDS011;64233;51.486;6.332;2022-11-20T10:05:21;21.95;;;10.77;;
75639;SDS011;64233;51.486;6.332;2022-11-20T10:10:46;16.88;;;9.65;;
75639;SDS011;64233;51.486;6.332;2022-11-20T10:18:42;16.50;;;9.80;;
75639;SDS011;64233;51.486;6.332;2022-11-20T10:21:16;20.13;;;9.50;;
75639;SDS011;64233;51.486;6.332;2022-11-20T10:24:17;13.27;;;7.35;;
75639;SDS011;64233;51.486;6.332;2022-11-20T10:27:21;14.93;;;8.32;;
75639;SDS011;64233;51.486;6.332;2022-11-20T10:29:56;16.98;;;9.43;;
75639;SDS011;64233;51.486;6.332;2022-11-20T10:34:59;15.60;;;7.07;;
75639;SDS011;64233;51.486;6.332;2022-11-20T10:37:29;15.50;;;9.02;;
75639;SDS011;64233;51.486;6.332;2022-11-20T10:42:33;14.30;;;8.38;;
75639;SDS011;64233;51.486;6.332;2022-11-20T10:45:21;16.38;;;8.43;;
75639;SDS011;64233;51.486;6.332;2022-11-20T10:50:32;16.08;;;8.63;;
75639;SDS011;64233;51.486;6.332;2022-11-20T10:57:05;17.73;;;10.18;;
75639;SDS011;64233;51.486;6.332;2022-11-20T11:02:18;21.48;;;10.52;;
75639;SDS011;64233;51.486;6.332;2022-11-20T11:04:45;20.35;;;10.05;;
75639;SDS011;64233;51.486;6.332;2022-11-20T11:09:49;24.60;;;11.68;;
75639;SDS011;64233;51.486;6.332;2022-11-20T11:12:18;23.77;;;11.02;;
75639;SDS011;64233;51.486;6.332;2022-11-20T11:14:48;25.35;;;12.45;;
75639;SDS011;64233;51.486;6.332;2022-11-20T11:17:22;27.42;;;11.73;;
75639;SDS011;64233;51.486;6.332;2022-11-20T11:22:29;30.48;;;11.43;;
75639;SDS011;64233;51.486;6.332;2022-11-20T11:24:56;26.27;;;11.65;;
75639;SDS011;64233;51.486;6.332;2022-11-20T11:27:21;29.92;;;11.65;;
75639;SDS011;64233;51.486;6.332;2022-11-20T11:29:47;31.08;;;12.70;;
75639;SDS011;64233;51.486;6.332;2022-11-20T11:32:19;25.45;;;11.32;;
75639;SDS011;64233;51.486;6.332;2022-11-20T11:34:58;28.35;;;11.82;;
75639;SDS011;64233;51.486;6.332;2022-11-20T11:37:24;28.10;;;13.55;;
75639;SDS011;64233;51.486;6.332;2022-11-20T11:40:01;30.80;;;12.07;;
75639;SDS011;64233;51.486;6.332;2022-11-20T11:42:28;38.88;;;12.88;;
75639;SDS011;64233;51.486;6.332;2022-11-20T11:44:55;29.02;;;11.88;;
75639;SDS011;64233;51.486;6.332;2022-11-20T11:47:36;24.30;;;11.27;;
75639;SDS011;64233;51.486;6.332;2022-11-20T11:55:38;36.25;;;11.27;;
75639;SDS011;64233;51.486;6.332;2022-11-20T12:09:42;29.13;;;11.27;;
75639;SDS011;64233;51.486;6.332;2022-11-20T12:12:17;23.02;;;9.32;;
75639;SDS011;64233;51.486;6.332;2022-11-20T12:14:47;28.73;;;11.43;;
75639;SDS011;64233;51.486;6.332;2022-11-20T12:17:16;31.30;;;12.60;;
75639;SDS011;64233;51.486;6.332;2022-11-20T12:19:42;32.45;;;12.20;;
75639;SDS011;64233;51.486;6.332;2022-11-20T12:34:30;29.70;;;10.85;;
75639;SDS011;64233;51.486;6.332;2022-11-20T12:37:13;33.50;;;12.43;;
75639;SDS011;64233;51.486;6.332;2022-11-20T12:39:49;29.80;;;11.00;;
75639;SDS011;64233;51.486;6.332;2022-11-20T12:45:35;30.20;;;12.35;;
75639;SDS011;64233;51.486;6.332;2022-11-20T12:51:05;36.17;;;12.35;;
75639;SDS011;64233;51.486;6.332;2022-11-20T12:53:37;27.55;;;12.20;;
75639;SDS011;64233;51.486;6.332;2022-11-20T12:59:12;22.77;;;10.68;;
75639;SDS011;64233;51.486;6.332;2022-11-20T13:01:50;26.55;;;12.68;;
75639;SDS011;64233;51.486;6.332;2022-11-20T13:07:11;32.78;;;12.63;;
75639;SDS011;64233;51.486;6.332;2022-11-20T13:09:40;32.50;;;13.63;;
75639;SDS011;64233;51.486;6.332;2022-11-20T13:20:16;26.35;;;10.80;;
75639;SDS011;64233;51.486;6.332;2022-11-20T13:25:21;24.70;;;10.95;;
75639;SDS011;64233;51.486;6.332;2022-11-20T13:30:34;26.92;;;11.38;;
75639;SDS011;64233;51.486;6.332;2022-11-20T13:33:06;24.17;;;11.52;;
75639;SDS011;64233;51.486;6.332;2022-11-20T13:35:54;29.38;;;11.07;;
75639;SDS011;64233;51.486;6.332;2022-11-20T13:38:21;30.88;;;12.15;;
75639;SDS011;64233;51.486;6.332;2022-11-20T13:40:54;31.48;;;13.73;;
75639;SDS011;64233;51.486;6.332;2022-11-20T13:43:27;27.15;;;10.45;;
75639;SDS011;64233;51.486;6.332;2022-11-20T13:46:01;24.02;;;12.98;;
75639;SDS011;64233;51.486;6.332;2022-11-20T13:48:38;17.58;;;8.73;;
75639;SDS011;64233;51.486;6.332;2022-11-20T14:01:53;23.48;;;10.00;;
75639;SDS011;64233;51.486;6.332;2022-11-20T14:04:27;23.15;;;11.18;;
75639;SDS011;64233;51.486;6.332;2022-11-20T14:06:57;22.00;;;9.73;;
75639;SDS011;64233;51.486;6.332;2022-11-20T14:09:30;24.08;;;11.05;;
75639;SDS011;64233;51.486;6.332;2022-11-20T14:11:56;26.77;;;11.35;;
75639;SDS011;64233;51.486;6.332;2022-11-20T14:14:23;25.52;;;11.35;;
75639;SDS011;64233;51.486;6.332;2022-11-20T14:16:53;28.90;;;10.35;;
75639;SDS011;64233;51.486;6.332;2022-11-20T14:19:32;25.50;;;10.40;;
75639;SDS011;64233;51.486;6.332;2022-11-20T14:24:43;19.45;;;9.55;;
75639;SDS011;64233;51.486;6.332;2022-11-20T14:27:15;26.17;;;10.88;;
75639;SDS011;64233;51.486;6.332;2022-11-20T14:29:43;20.35;;;10.00;;
75639;SDS011;64233;51.486;6.332;2022-11-20T14:32:10;27.20;;;12.40;;
75639;SDS011;64233;51.486;6.332;2022-11-20T14:34:37;27.65;;;11.43;;
75639;SDS011;64233;51.486;6.332;2022-11-20T14:37:05;28.70;;;10.43;;
75639;SDS011;64233;51.486;6.332;2022-11-20T14:39:35;17.63;;;9.20;;
75639;SDS011;64233;51.486;6.332;2022-11-20T14:42:10;23.48;;;9.90;;
75639;SDS011;64233;51.486;6.332;2022-11-20T14:44:40;16.73;;;9.45;;
75639;SDS011;64233;51.486;6.332;2022-11-20T14:47:08;17.85;;;8.38;;
75639;SDS011;64233;51.486;6.332;2022-11-20T14:49:38;18.92;;;8.40;;
75639;SDS011;64233;51.486;6.332;2022-11-20T14:52:11;20.58;;;9.90;;
75639;SDS011;64233;51.486;6.332;2022-11-20T14:57:32;26.77;;;9.95;;
75639;SDS011;64233;51.486;6.332;2022-11-20T15:02:42;23.30;;;11.98;;
75639;SDS011;64233;51.486;6.332;2022-11-20T15:05:09;16.30;;;6.93;;
75639;SDS011;64233;51.486;6.332;2022-11-20T15:07:36;22.90;;;9.77;;
75639;SDS011;64233;51.486;6.332;2022-11-20T15:12:37;20.52;;;10.05;;
75639;SDS011;64233;51.486;6.332;2022-11-20T15:15:10;21.70;;;9.68;;
75639;SDS011;64233;51.486;6.332;2022-11-20T15:17:39;24.80;;;10.63;;
75639;SDS011;64233;51.486;6.332;2022-11-20T15:20:08;22.30;;;9.98;;
75639;SDS011;64233;51.486;6.332;2022-11-20T15:22:38;21.33;;;10.10;;
75639;SDS011;64233;51.486;6.332;2022-11-20T15:25:10;26.73;;;11.15;;
75639;SDS011;64233;51.486;6.332;2022-11-20T15:27:37;30.75;;;9.43;;
75639;SDS011;64233;51.486;6.332;2022-11-20T15:30:05;21.17;;;9.23;;
75639;SDS011;64233;51.486;6.332;2022-11-20T15:32:38;24.48;;;11.32;;
75639;SDS011;64233;51.486;6.332;2022-11-20T15:35:03;27.67;;;11.50;;
75639;SDS011;64233;51.486;6.332;2022-11-20T15:37:29;30.20;;;11.98;;
75639;SDS011;64233;51.486;6.332;2022-11-20T15:39:54;8.88;;;5.85;;
75639;SDS011;64233;51.486;6.332;2022-11-20T15:42:22;22.30;;;10.27;;
75639;SDS011;64233;51.486;6.332;2022-11-20T15:44:48;22.25;;;10.63;;
75639;SDS011;64233;51.486;6.332;2022-11-20T15:47:13;23.75;;;11.25;;
75639;SDS011;64233;51.486;6.332;2022-11-20T15:49:38;27.55;;;12.50;;
75639;SDS011;64233;51.486;6.332;2022-11-20T15:52:03;23.50;;;9.02;;
75639;SDS011;64233;51.486;6.332;2022-11-20T15:54:29;27.17;;;11.35;;
75639;SDS011;64233;51.486;6.332;2022-11-20T15:56:54;25.48;;;11.38;;
75639;SDS011;64233;51.486;6.332;2022-11-20T15:59:19;29.70;;;12.50;;
75639;SDS011;64233;51.486;6.332;2022-11-20T16:01:45;25.80;;;13.27;;
75639;SDS011;64233;51.486;6.332;2022-11-20T16:04:11;37.28;;;14.00;;
75639;SDS011;64233;51.486;6.332;2022-11-20T16:06:38;32.88;;;13.38;;
75639;SDS011;64233;51.486;6.332;2022-11-20T16:09:03;23.67;;;12.25;;
75639;SDS011;64233;51.486;6.332;2022-11-20T16:11:28;32.60;;;13.23;;
75639;SDS011;64233;51.486;6.332;2022-11-20T16:13:54;30.15;;;13.02;;
75639;SDS011;64233;51.486;6.332;2022-11-20T16:16:38;29.25;;;12.38;;
75639;SDS011;64233;51.486;6.332;2022-11-20T16:19:05;27.23;;;11.20;;
75639;SDS011;64233;51.486;6.332;2022-11-20T16:21:30;28.70;;;11.90;;
75639;SDS011;64233;51.486;6.332;2022-11-20T16:23:57;27.48;;;10.25;;
75639;SDS011;64233;51.486;6.332;2022-11-20T16:26:26;26.55;;;11.85;;
75639;SDS011;64233;51.486;6.332;2022-11-20T16:28:51;26.67;;;11.75;;